createdAt,value
2019-03-09T00:00:48.435Z,1.63
2019-03-09T00:01:52.345Z,2.40
2019-03-09T00:02:55.815Z,1.80
2019-03-09T00:03:59.255Z,1.50
2019-03-09T00:05:02.751Z,1.53
2019-03-09T00:06:06.218Z,2.23
2019-03-09T00:07:09.933Z,1.77
2019-03-09T00:08:13.416Z,2.07
2019-03-09T00:09:16.867Z,1.90
2019-03-09T00:10:20.310Z,1.60
2019-03-09T00:11:23.784Z,1.80
2019-03-09T00:12:27.225Z,1.90
2019-03-09T00:13:30.700Z,1.57
2019-03-09T00:14:34.192Z,1.47
2019-03-09T00:15:37.702Z,1.90
2019-03-09T00:16:41.171Z,2.00
2019-03-09T00:17:44.614Z,1.87
2019-03-09T00:18:48.077Z,2.10
2019-03-09T00:19:51.719Z,1.30
2019-03-09T00:20:55.188Z,2.20
2019-03-09T00:21:58.805Z,1.90
2019-03-09T00:23:09.975Z,1.80
2019-03-09T00:24:24.494Z,1.53
2019-03-09T00:25:31.994Z,1.67
2019-03-09T00:26:39.766Z,1.90
2019-03-09T00:27:47.916Z,1.77
2019-03-09T00:28:55.724Z,2.30
2019-03-09T00:30:06.582Z,1.73
2019-03-09T00:31:14.084Z,1.90
2019-03-09T00:32:19.167Z,2.27
2019-03-09T00:33:22.639Z,1.20
2019-03-09T00:34:26.103Z,2.10
2019-03-09T00:35:29.850Z,1.77
2019-03-09T00:36:33.316Z,1.30
2019-03-09T00:37:36.758Z,1.47
2019-03-09T00:38:40.227Z,1.47
2019-03-09T00:39:43.685Z,1.37
2019-03-09T00:40:47.133Z,1.43
2019-03-09T00:41:50.606Z,1.67
2019-03-09T00:42:54.040Z,1.30
2019-03-09T00:43:57.533Z,1.50
2019-03-09T00:45:01.006Z,1.70
2019-03-09T00:46:04.449Z,1.60
2019-03-09T00:47:07.998Z,1.90
2019-03-09T00:48:11.443Z,2.03
2019-03-09T00:49:20.590Z,1.80
2019-03-09T00:50:24.038Z,1.60
2019-03-09T00:51:27.481Z,1.80
2019-03-09T00:52:31.131Z,1.87
2019-03-09T00:53:34.696Z,1.57
2019-03-09T00:54:38.148Z,1.50
2019-03-09T00:55:41.633Z,1.60
2019-03-09T00:56:45.078Z,1.40
2019-03-09T00:57:48.521Z,1.30
2019-03-09T00:58:52.014Z,1.80
2019-03-09T00:59:56.696Z,1.77
2019-03-09T01:01:00.167Z,1.00
2019-03-09T01:02:03.829Z,1.33
2019-03-09T01:03:07.312Z,1.70
2019-03-09T01:04:10.803Z,1.80
2019-03-09T01:05:14.789Z,1.67
2019-03-09T01:06:18.299Z,1.80
2019-03-09T01:07:21.841Z,1.40
2019-03-09T01:08:25.305Z,2.00
2019-03-09T01:09:28.847Z,2.00
2019-03-09T01:10:32.316Z,1.43
2019-03-09T01:11:35.765Z,1.50
2019-03-09T01:12:39.506Z,1.43
2019-03-09T01:13:42.943Z,1.57
2019-03-09T01:14:46.385Z,2.10
2019-03-09T01:15:49.859Z,1.83
2019-03-09T01:16:53.305Z,1.70
2019-03-09T01:17:56.773Z,1.87
2019-03-09T01:19:00.333Z,1.87
2019-03-09T01:20:04.814Z,1.50
2019-03-09T01:21:08.283Z,1.67
2019-03-09T01:22:11.789Z,1.70
2019-03-09T01:23:15.372Z,1.77
2019-03-09T01:24:18.861Z,1.17
2019-03-09T01:25:22.404Z,1.23
2019-03-09T01:26:25.876Z,1.33
2019-03-09T01:27:29.342Z,1.33
2019-03-09T01:28:32.786Z,1.27
2019-03-09T01:29:36.263Z,1.40
2019-03-09T01:30:39.788Z,1.20
2019-03-09T01:31:43.242Z,1.30
2019-03-09T01:32:46.702Z,1.27
2019-03-09T01:33:50.153Z,1.33
2019-03-09T01:34:53.637Z,1.40
2019-03-09T01:35:57.092Z,1.20
2019-03-09T01:37:00.547Z,1.20
2019-03-09T01:38:04.079Z,1.67
2019-03-09T01:39:07.765Z,1.30
2019-03-09T01:40:15.838Z,1.67
2019-03-09T01:41:19.304Z,1.27
2019-03-09T01:42:22.758Z,1.60
2019-03-09T01:43:26.229Z,1.33
2019-03-09T01:44:29.681Z,1.60
2019-03-09T01:45:33.163Z,1.30
2019-03-09T01:46:36.631Z,1.60
2019-03-09T01:47:40.085Z,1.63
2019-03-09T01:48:43.549Z,1.60
2019-03-09T01:49:47.082Z,1.50
2019-03-09T01:50:50.580Z,1.70
2019-03-09T01:51:54.106Z,1.37
2019-03-09T01:52:57.628Z,0.93
2019-03-09T01:54:01.188Z,1.40
2019-03-09T01:55:07.396Z,1.70
2019-03-09T01:56:10.936Z,1.20
2019-03-09T01:57:14.398Z,1.37
2019-03-09T01:58:17.863Z,1.23
2019-03-09T01:59:21.319Z,1.40
2019-03-09T02:00:24.847Z,1.77
2019-03-09T02:01:28.323Z,1.40
2019-03-09T02:02:31.843Z,1.27
2019-03-09T02:03:35.314Z,1.30
2019-03-09T02:04:38.764Z,1.30
2019-03-09T02:05:42.214Z,1.33
2019-03-09T02:06:45.693Z,1.20
2019-03-09T02:07:49.140Z,1.53
2019-03-09T02:08:52.665Z,1.23
2019-03-09T02:09:56.358Z,1.30
2019-03-09T02:10:59.809Z,1.17
2019-03-09T02:12:03.284Z,1.37
2019-03-09T02:13:06.799Z,1.30
2019-03-09T02:14:10.251Z,1.30
2019-03-09T02:15:15.047Z,1.40
2019-03-09T02:16:18.491Z,1.40
2019-03-09T02:17:21.962Z,1.60
2019-03-09T02:18:25.486Z,1.60
2019-03-09T02:19:29.007Z,1.20
2019-03-09T02:20:32.457Z,1.20
2019-03-09T02:21:35.930Z,1.40
2019-03-09T02:22:39.384Z,1.20
2019-03-09T02:23:42.837Z,1.33
2019-03-09T02:24:46.286Z,1.30
2019-03-09T02:25:49.749Z,1.20
2019-03-09T02:26:53.200Z,1.40
2019-03-09T02:27:56.678Z,1.10
2019-03-09T02:29:01.103Z,1.40
2019-03-09T02:30:07.813Z,1.00
2019-03-09T02:31:11.329Z,1.10
2019-03-09T02:32:14.786Z,1.10
2019-03-09T02:33:18.246Z,1.50
2019-03-09T02:34:21.719Z,1.20
2019-03-09T02:35:25.292Z,1.67
2019-03-09T02:36:28.810Z,1.13
2019-03-09T02:37:32.310Z,1.13
2019-03-09T02:38:37.455Z,1.33
2019-03-09T02:39:42.549Z,1.50
2019-03-09T02:40:46.006Z,1.20
2019-03-09T02:41:49.456Z,1.17
2019-03-09T02:42:52.993Z,1.10
2019-03-09T02:43:56.465Z,1.00
2019-03-09T02:44:59.916Z,1.50
2019-03-09T02:46:03.373Z,1.43
2019-03-09T02:47:06.825Z,1.40
2019-03-09T02:48:10.320Z,1.33
2019-03-09T02:49:13.758Z,1.30
2019-03-09T02:50:17.751Z,1.40
2019-03-09T02:51:21.202Z,1.30
2019-03-09T02:52:24.660Z,1.30
2019-03-09T02:53:28.246Z,1.00
2019-03-09T02:54:31.731Z,1.20
2019-03-09T02:55:35.172Z,1.53
2019-03-09T02:56:38.642Z,1.07
2019-03-09T02:57:42.174Z,1.10
2019-03-09T02:58:45.627Z,1.13
2019-03-09T02:59:49.102Z,1.00
2019-03-09T03:00:54.249Z,1.10
2019-03-09T03:01:59.361Z,1.33
2019-03-09T03:03:09.482Z,0.97
2019-03-09T03:04:12.942Z,1.30
2019-03-09T03:05:16.587Z,1.20
2019-03-09T03:06:20.086Z,0.90
2019-03-09T03:07:23.603Z,1.13
2019-03-09T03:08:27.056Z,1.17
2019-03-09T03:09:30.510Z,1.20
2019-03-09T03:10:34.005Z,1.00
2019-03-09T03:11:37.638Z,1.20
2019-03-09T03:12:41.091Z,1.07
2019-03-09T03:13:44.542Z,1.43
2019-03-09T03:14:48.000Z,1.20
2019-03-09T03:15:51.469Z,1.07
2019-03-09T03:16:54.926Z,1.20
2019-03-09T03:17:58.381Z,1.30
2019-03-09T03:19:01.824Z,1.40
2019-03-09T03:20:07.223Z,1.07
2019-03-09T03:21:10.692Z,1.10
2019-03-09T03:22:14.143Z,0.93
2019-03-09T03:23:17.606Z,0.97
2019-03-09T03:24:21.061Z,1.30
2019-03-09T03:25:24.644Z,1.70
2019-03-09T03:26:28.121Z,1.07
2019-03-09T03:27:31.574Z,1.00
2019-03-09T03:28:35.034Z,1.03
2019-03-09T03:29:38.472Z,1.30
2019-03-09T03:30:41.927Z,1.53
2019-03-09T03:31:45.418Z,1.00
2019-03-09T03:32:48.862Z,1.27
2019-03-09T03:33:52.376Z,1.30
2019-03-09T03:34:55.906Z,1.10
2019-03-09T03:35:59.357Z,1.20
2019-03-09T03:37:02.840Z,1.00
2019-03-09T03:38:06.285Z,1.40
2019-03-09T03:39:09.879Z,1.00
2019-03-09T03:40:13.571Z,1.17
2019-03-09T03:41:17.032Z,1.03
2019-03-09T03:42:20.642Z,0.97
2019-03-09T03:43:24.092Z,1.00
2019-03-09T03:44:27.612Z,1.00
2019-03-09T03:45:31.081Z,1.10
2019-03-09T03:46:34.516Z,1.07
2019-03-09T03:47:37.985Z,1.10
2019-03-09T03:48:41.449Z,0.90
2019-03-09T03:49:44.953Z,1.00
2019-03-09T03:50:48.424Z,1.57
2019-03-09T03:51:51.886Z,1.20
2019-03-09T03:52:55.344Z,1.40
2019-03-09T03:53:58.820Z,1.00
2019-03-09T03:55:02.327Z,1.10
2019-03-09T03:56:05.841Z,0.97
2019-03-09T03:57:09.366Z,1.10
2019-03-09T03:58:12.959Z,1.20
2019-03-09T03:59:16.370Z,1.17
2019-03-09T04:00:19.973Z,1.13
2019-03-09T04:01:23.481Z,1.00
2019-03-09T04:02:27.020Z,0.90
2019-03-09T04:03:30.485Z,1.03
2019-03-09T04:04:34.059Z,1.37
2019-03-09T04:05:37.693Z,1.03
2019-03-09T04:06:41.265Z,1.10
2019-03-09T04:07:44.813Z,1.20
2019-03-09T04:08:48.368Z,1.20
2019-03-09T04:09:52.151Z,0.77
2019-03-09T04:10:55.688Z,1.23
2019-03-09T04:11:59.124Z,1.40
2019-03-09T04:13:03.312Z,1.00
2019-03-09T04:14:06.927Z,1.07
2019-03-09T04:15:10.702Z,1.13
2019-03-09T04:16:14.170Z,1.10
2019-03-09T04:17:17.652Z,1.10
2019-03-09T04:18:21.212Z,0.90
2019-03-09T04:19:24.702Z,1.00
2019-03-09T04:20:28.137Z,0.97
2019-03-09T04:21:31.583Z,0.90
2019-03-09T04:22:35.052Z,1.20
2019-03-09T04:23:38.507Z,1.10
2019-03-09T04:24:42.139Z,1.10
2019-03-09T04:25:45.608Z,1.10
2019-03-09T04:26:49.134Z,1.03
2019-03-09T04:27:52.656Z,0.90
2019-03-09T04:28:56.171Z,0.87
2019-03-09T04:29:59.702Z,1.17
2019-03-09T04:31:03.183Z,1.20
2019-03-09T04:32:06.623Z,0.90
2019-03-09T04:33:10.094Z,0.70
2019-03-09T04:34:13.559Z,1.10
2019-03-09T04:35:17.020Z,1.00
2019-03-09T04:36:20.491Z,0.90
2019-03-09T04:37:23.938Z,0.93
2019-03-09T04:38:27.380Z,0.90
2019-03-09T04:39:30.845Z,1.20
2019-03-09T04:40:34.305Z,0.90
2019-03-09T04:41:37.790Z,0.90
2019-03-09T04:42:41.330Z,0.80
2019-03-09T04:43:44.773Z,0.90
2019-03-09T04:44:48.239Z,0.80
2019-03-09T04:45:51.697Z,1.30
2019-03-09T04:46:55.145Z,0.93
2019-03-09T04:47:58.626Z,1.00
2019-03-09T04:49:02.066Z,0.90
2019-03-09T04:50:06.194Z,1.20
2019-03-09T04:51:09.682Z,0.90
2019-03-09T04:52:13.139Z,0.90
2019-03-09T04:53:16.605Z,0.90
2019-03-09T04:54:20.054Z,0.90
2019-03-09T04:55:23.510Z,0.90
2019-03-09T04:56:27.156Z,0.90
2019-03-09T04:57:30.614Z,0.90
2019-03-09T04:58:34.065Z,1.10
2019-03-09T04:59:37.522Z,0.97
2019-03-09T05:00:40.982Z,0.90
2019-03-09T05:01:44.458Z,1.10
2019-03-09T05:02:47.909Z,1.10
2019-03-09T05:04:03.226Z,1.10
2019-03-09T05:05:09.220Z,1.10
2019-03-09T05:06:13.042Z,1.10
2019-03-09T05:07:19.955Z,0.70
2019-03-09T05:08:32.313Z,0.97
2019-03-09T05:10:08.594Z,1.00
2019-03-09T05:11:12.586Z,0.90
2019-03-09T05:12:16.046Z,0.93
2019-03-09T05:13:25.098Z,1.17
2019-03-09T05:14:28.555Z,0.90
2019-03-09T05:15:32.017Z,0.83
2019-03-09T05:16:35.473Z,0.90
2019-03-09T05:17:38.964Z,0.80
2019-03-09T05:18:42.424Z,1.20
2019-03-09T05:19:45.877Z,0.70
2019-03-09T05:20:49.335Z,0.73
2019-03-09T05:21:52.790Z,0.80
2019-03-09T05:22:56.263Z,0.70
2019-03-09T05:23:59.726Z,0.87
2019-03-09T05:25:03.247Z,0.80
2019-03-09T05:26:06.700Z,1.07
2019-03-09T05:27:10.162Z,0.90
2019-03-09T05:28:13.640Z,1.00
2019-03-09T05:29:17.093Z,0.80
2019-03-09T05:30:37.601Z,0.90
2019-03-09T05:31:41.049Z,0.80
2019-03-09T05:32:44.510Z,0.70
2019-03-09T05:33:47.998Z,0.73
2019-03-09T05:34:51.438Z,0.70
2019-03-09T05:35:54.894Z,0.80
2019-03-09T05:36:58.347Z,0.80
2019-03-09T05:38:01.811Z,0.80
2019-03-09T05:39:06.121Z,0.80
2019-03-09T05:40:09.712Z,0.80
2019-03-09T05:41:13.169Z,0.80
2019-03-09T05:42:16.626Z,0.93
2019-03-09T05:43:20.081Z,0.77
2019-03-09T05:44:23.562Z,0.80
2019-03-09T05:45:27.151Z,0.60
2019-03-09T05:46:30.601Z,0.80
2019-03-09T05:47:34.057Z,0.80
2019-03-09T05:48:37.510Z,0.80
2019-03-09T05:49:40.990Z,0.87
2019-03-09T05:50:44.509Z,0.80
2019-03-09T05:52:19.613Z,0.93
2019-03-09T05:53:23.126Z,0.90
2019-03-09T05:54:26.581Z,0.80
2019-03-09T05:55:30.061Z,0.80
2019-03-09T05:56:33.514Z,0.70
2019-03-09T05:57:36.972Z,0.70
2019-03-09T05:58:40.447Z,0.90
2019-03-09T05:59:43.903Z,0.67
2019-03-09T06:00:47.377Z,0.73
2019-03-09T06:01:50.838Z,0.70
2019-03-09T06:02:54.289Z,0.80
2019-03-09T06:03:57.765Z,0.97
2019-03-09T06:05:01.259Z,0.70
2019-03-09T06:06:04.832Z,0.90
2019-03-09T06:07:08.306Z,0.80
2019-03-09T06:08:11.742Z,0.80
2019-03-09T06:09:15.190Z,0.80
2019-03-09T06:10:18.706Z,0.80
2019-03-09T06:11:22.134Z,0.70
2019-03-09T06:12:25.607Z,0.60
2019-03-09T06:13:29.151Z,0.83
2019-03-09T06:14:32.590Z,0.87
2019-03-09T06:15:36.080Z,0.70
2019-03-09T06:16:39.524Z,0.70
2019-03-09T06:17:42.969Z,0.80
2019-03-09T06:18:46.442Z,1.07
2019-03-09T06:19:49.886Z,0.80
2019-03-09T06:20:53.378Z,0.60
2019-03-09T06:21:56.854Z,0.80
2019-03-09T06:23:00.298Z,0.80
2019-03-09T06:24:03.840Z,1.00
2019-03-09T06:25:07.356Z,0.70
2019-03-09T06:26:10.806Z,0.70
2019-03-09T06:27:14.277Z,0.60
2019-03-09T06:28:17.717Z,0.70
2019-03-09T06:29:21.224Z,0.87
2019-03-09T06:30:24.653Z,0.80
2019-03-09T06:31:28.112Z,0.70
2019-03-09T06:32:34.632Z,0.70
2019-03-09T06:33:38.073Z,0.70
2019-03-09T06:34:41.521Z,0.97
2019-03-09T06:35:46.136Z,1.00
2019-03-09T06:36:52.685Z,0.80
2019-03-09T06:37:59.207Z,0.60
2019-03-09T06:39:05.354Z,0.60
2019-03-09T06:40:09.764Z,0.83
2019-03-09T06:41:25.059Z,0.90
2019-03-09T06:42:37.103Z,1.20
2019-03-09T06:43:40.544Z,0.87
2019-03-09T06:44:44.015Z,0.73
2019-03-09T06:45:47.457Z,0.80
2019-03-09T06:46:50.928Z,0.80
2019-03-09T06:47:54.416Z,0.80
2019-03-09T06:48:57.861Z,0.73
2019-03-09T06:50:01.327Z,0.57
2019-03-09T06:51:04.837Z,0.73
2019-03-09T06:52:08.282Z,0.73
2019-03-09T06:53:11.781Z,1.20
2019-03-09T06:54:15.217Z,0.83
2019-03-09T06:55:18.690Z,0.80
2019-03-09T06:56:22.160Z,0.93
2019-03-09T06:57:25.606Z,0.70
2019-03-09T06:58:29.098Z,0.70
2019-03-09T06:59:32.554Z,0.67
2019-03-09T07:00:37.839Z,0.90
2019-03-09T07:01:41.313Z,1.10
2019-03-09T07:02:44.753Z,1.00
2019-03-09T07:03:48.308Z,1.10
2019-03-09T07:04:51.787Z,1.00
2019-03-09T07:05:55.296Z,0.80
2019-03-09T07:06:58.770Z,0.70
2019-03-09T07:08:02.389Z,0.90
2019-03-09T07:09:06.703Z,0.97
2019-03-09T07:10:10.361Z,0.70
2019-03-09T07:11:13.817Z,0.80
2019-03-09T07:12:17.273Z,1.20
2019-03-09T07:13:20.734Z,1.23
2019-03-09T07:14:55.522Z,0.80
2019-03-09T07:15:58.973Z,0.70
2019-03-09T07:17:02.501Z,1.10
2019-03-09T07:18:10.807Z,1.20
2019-03-09T07:19:14.280Z,1.10
2019-03-09T07:20:17.741Z,0.90
2019-03-09T07:21:21.223Z,1.10
2019-03-09T07:22:24.736Z,1.00
2019-03-09T07:23:28.186Z,1.00
2019-03-09T07:24:31.668Z,1.00
2019-03-09T07:25:35.485Z,1.00
2019-03-09T07:26:39.010Z,1.37
2019-03-09T07:27:42.471Z,0.73
2019-03-09T07:28:45.924Z,0.90
2019-03-09T07:29:49.402Z,1.00
2019-03-09T07:30:52.938Z,1.10
2019-03-09T07:31:56.462Z,1.00
2019-03-09T07:32:59.923Z,0.77
2019-03-09T07:34:23.522Z,0.97
2019-03-09T07:35:27.078Z,1.10
2019-03-09T07:36:30.538Z,1.20
2019-03-09T07:37:33.990Z,1.03
2019-03-09T07:38:37.451Z,0.80
2019-03-09T07:39:40.906Z,1.70
2019-03-09T07:40:44.449Z,1.17
2019-03-09T07:41:47.916Z,1.40
2019-03-09T07:42:51.436Z,1.20
2019-03-09T07:43:54.898Z,1.30
2019-03-09T07:44:58.356Z,1.10
2019-03-09T07:46:01.899Z,1.13
2019-03-09T07:47:05.435Z,1.20
2019-03-09T07:48:08.974Z,1.30
2019-03-09T07:49:12.427Z,1.70
2019-03-09T07:50:17.127Z,1.23
2019-03-09T07:51:20.602Z,1.50
2019-03-09T07:52:35.238Z,1.50
2019-03-09T07:53:38.696Z,1.70
2019-03-09T07:54:42.155Z,1.80
2019-03-09T07:55:45.617Z,1.53
2019-03-09T07:56:49.098Z,1.67
2019-03-09T07:57:54.077Z,1.33
2019-03-09T07:58:57.527Z,1.50
2019-03-09T08:00:00.982Z,1.50
2019-03-09T08:01:04.502Z,1.57
2019-03-09T08:02:07.988Z,1.70
2019-03-09T08:03:13.383Z,1.80
2019-03-09T08:04:16.630Z,1.53
2019-03-09T08:05:20.085Z,2.03
2019-03-09T08:06:23.539Z,1.40
2019-03-09T08:07:27.020Z,1.60
2019-03-09T08:08:30.480Z,1.63
2019-03-09T08:09:33.937Z,1.73
2019-03-09T08:10:37.426Z,1.63
2019-03-09T08:11:40.862Z,1.60
2019-03-09T08:12:44.489Z,1.67
2019-03-09T08:13:47.946Z,1.60
2019-03-09T08:14:51.482Z,1.80
2019-03-09T08:15:54.939Z,1.67
2019-03-09T08:16:58.390Z,1.40
2019-03-09T08:18:01.872Z,1.40
2019-03-09T08:19:05.358Z,1.50
2019-03-09T08:20:11.150Z,1.67
2019-03-09T08:21:14.619Z,1.87
2019-03-09T08:22:18.090Z,1.47
2019-03-09T08:23:21.583Z,1.60
2019-03-09T08:24:25.057Z,1.70
2019-03-09T08:25:28.498Z,1.30
2019-03-09T08:26:31.941Z,1.60
2019-03-09T08:27:35.428Z,1.73
2019-03-09T08:28:38.958Z,1.60
2019-03-09T08:29:42.482Z,1.40
2019-03-09T08:30:45.988Z,1.33
2019-03-09T08:31:49.424Z,1.20
2019-03-09T08:32:52.966Z,1.20
2019-03-09T08:33:56.501Z,1.30
2019-03-09T08:34:59.950Z,1.50
2019-03-09T08:36:03.479Z,1.33
2019-03-09T08:37:06.905Z,1.20
2019-03-09T08:38:10.377Z,1.10
2019-03-09T08:39:13.884Z,1.33
2019-03-09T08:40:18.544Z,1.30
2019-03-09T08:41:22.022Z,1.33
2019-03-09T08:42:25.470Z,1.47
2019-03-09T08:43:28.919Z,1.00
2019-03-09T08:44:32.479Z,1.00
2019-03-09T08:45:35.913Z,1.20
2019-03-09T08:46:39.396Z,1.33
2019-03-09T08:47:51.643Z,1.13
2019-03-09T08:48:48.018Z,1.30
2019-03-09T08:49:51.582Z,1.20
2019-03-09T08:50:55.046Z,0.93
2019-03-09T08:51:58.487Z,1.10
2019-03-09T08:53:02.018Z,1.00
2019-03-09T08:54:05.528Z,1.10
2019-03-09T08:55:10.867Z,1.00
2019-03-09T08:56:14.315Z,1.00
2019-03-09T08:57:17.854Z,1.30
2019-03-09T08:58:21.333Z,0.90
2019-03-09T08:59:24.965Z,1.00
2019-03-09T09:00:30.921Z,1.33
2019-03-09T09:01:34.507Z,1.27
2019-03-09T09:02:37.979Z,1.00
2019-03-09T09:03:41.450Z,1.00
2019-03-09T09:04:44.927Z,0.90
2019-03-09T09:05:48.415Z,1.27
2019-03-09T09:06:51.885Z,1.17
2019-03-09T09:07:55.327Z,1.07
2019-03-09T09:08:58.770Z,1.10
2019-03-09T09:10:02.248Z,1.30
2019-03-09T09:11:05.869Z,1.40
2019-03-09T09:12:09.337Z,1.20
2019-03-09T09:13:12.835Z,1.30
2019-03-09T09:14:16.270Z,1.03
2019-03-09T09:15:19.821Z,1.00
2019-03-09T09:16:23.289Z,0.90
2019-03-09T09:17:26.735Z,0.87
2019-03-09T09:18:30.220Z,1.00
2019-03-09T09:19:33.665Z,0.93
2019-03-09T09:20:37.158Z,1.20
2019-03-09T09:21:40.744Z,0.80
2019-03-09T09:22:44.179Z,1.30
2019-03-09T09:23:47.651Z,1.20
2019-03-09T09:24:51.130Z,1.00
2019-03-09T09:25:54.617Z,1.10
2019-03-09T09:27:03.266Z,0.93
2019-03-09T09:28:06.766Z,1.00
2019-03-09T09:29:10.208Z,0.83
2019-03-09T09:30:16.562Z,0.90
2019-03-09T09:31:20.044Z,0.80
2019-03-09T09:32:23.529Z,0.97
2019-03-09T09:33:26.989Z,1.57
2019-03-09T09:34:30.465Z,0.90
2019-03-09T09:35:34.057Z,1.10
2019-03-09T09:36:45.172Z,1.10
2019-03-09T09:37:48.720Z,1.17
2019-03-09T09:38:52.245Z,1.40
2019-03-09T09:39:55.715Z,1.27
2019-03-09T09:40:59.161Z,1.30
2019-03-09T09:42:02.633Z,1.40
2019-03-09T09:43:06.123Z,1.23
2019-03-09T09:44:09.714Z,1.73
2019-03-09T09:45:14.346Z,1.60
2019-03-09T09:46:17.922Z,1.80
2019-03-09T09:47:21.370Z,1.60
2019-03-09T09:48:24.935Z,1.57
2019-03-09T09:49:28.378Z,2.30
2019-03-09T09:50:31.870Z,2.87
2019-03-09T09:51:35.343Z,2.70
2019-03-09T09:52:38.866Z,2.67
2019-03-09T09:53:42.491Z,2.00
2019-03-09T09:54:45.936Z,2.23
2019-03-09T09:55:49.389Z,2.40
2019-03-09T09:56:52.869Z,2.63
2019-03-09T09:57:56.317Z,1.90
2019-03-09T09:58:59.810Z,2.77
2019-03-09T10:00:03.828Z,2.40
2019-03-09T10:01:07.391Z,2.00
2019-03-09T10:02:11.112Z,2.80
2019-03-09T10:03:14.543Z,2.50
2019-03-09T10:04:18.047Z,2.40
2019-03-09T10:05:22.303Z,2.57
2019-03-09T10:06:25.811Z,2.83
2019-03-09T10:07:29.358Z,2.87
2019-03-09T10:08:33.209Z,2.33
2019-03-09T10:09:36.705Z,2.60
2019-03-09T10:10:40.636Z,2.60
2019-03-09T10:11:44.167Z,2.70
2019-03-09T10:12:47.636Z,2.27
2019-03-09T10:13:51.178Z,2.20
2019-03-09T10:14:54.691Z,2.50
2019-03-09T10:15:58.204Z,2.40
2019-03-09T10:17:01.702Z,2.87
2019-03-09T10:18:05.265Z,2.50
2019-03-09T10:19:11.043Z,2.20
2019-03-09T10:20:14.168Z,2.37
2019-03-09T10:21:17.647Z,2.17
2019-03-09T10:22:21.124Z,2.20
2019-03-09T10:23:24.572Z,2.47
2019-03-09T10:24:28.064Z,2.23
2019-03-09T10:25:31.560Z,2.80
2019-03-09T10:26:35.001Z,2.27
2019-03-09T10:27:38.479Z,2.00
2019-03-09T10:28:41.928Z,2.43
2019-03-09T10:29:45.379Z,2.80
2019-03-09T10:30:48.869Z,1.90
2019-03-09T10:31:52.370Z,2.00
2019-03-09T10:32:55.839Z,2.53
2019-03-09T10:33:59.341Z,1.93
2019-03-09T10:35:02.854Z,1.70
2019-03-09T10:36:06.427Z,2.17
2019-03-09T10:37:09.891Z,2.23
2019-03-09T10:38:13.428Z,2.03
2019-03-09T10:39:16.974Z,2.20
2019-03-09T10:40:20.572Z,2.40
2019-03-09T10:41:24.047Z,2.50
2019-03-09T10:42:27.627Z,2.03
2019-03-09T10:43:31.077Z,2.27
2019-03-09T10:44:34.556Z,2.10
2019-03-09T10:45:38.103Z,2.23
2019-03-09T10:46:41.631Z,2.53
2019-03-09T10:47:45.162Z,1.80
2019-03-09T10:48:48.691Z,2.00
2019-03-09T10:49:52.152Z,2.10
2019-03-09T10:50:55.629Z,2.17
2019-03-09T10:51:59.434Z,2.20
2019-03-09T10:53:02.947Z,1.90
2019-03-09T10:54:06.410Z,2.03
2019-03-09T10:55:12.405Z,2.10
2019-03-09T10:56:15.877Z,2.23
2019-03-09T10:57:19.412Z,2.10
2019-03-09T10:58:22.876Z,2.90
2019-03-09T10:59:26.411Z,2.73
2019-03-09T11:00:38.231Z,2.57
2019-03-09T11:01:41.802Z,3.27
2019-03-09T11:02:45.328Z,2.90
2019-03-09T11:03:48.868Z,2.93
2019-03-09T11:04:52.341Z,3.17
2019-03-09T11:05:55.869Z,3.10
2019-03-09T11:06:59.379Z,2.47
2019-03-09T11:08:02.974Z,2.70
2019-03-09T11:09:07.265Z,3.10
2019-03-09T11:10:10.867Z,2.70
2019-03-09T11:11:14.541Z,2.47
2019-03-09T11:12:18.133Z,3.13
2019-03-09T11:13:21.588Z,2.77
2019-03-09T11:14:25.329Z,2.80
2019-03-09T11:15:28.927Z,2.63
2019-03-09T11:16:32.582Z,2.90
2019-03-09T11:17:36.122Z,2.73
2019-03-09T11:18:39.652Z,3.17
2019-03-09T11:19:43.089Z,2.97
2019-03-09T11:20:46.771Z,3.03
2019-03-09T11:21:50.235Z,3.10
2019-03-09T11:22:53.949Z,2.70
2019-03-09T11:23:57.401Z,2.70
2019-03-09T11:25:03.653Z,2.60
2019-03-09T11:26:06.247Z,3.00
2019-03-09T11:27:09.760Z,2.60
2019-03-09T11:28:13.942Z,2.80
2019-03-09T11:29:17.856Z,3.00
2019-03-09T11:30:24.362Z,2.93
2019-03-09T11:31:27.813Z,3.10
2019-03-09T11:32:31.273Z,3.03
2019-03-09T11:33:34.751Z,2.30
2019-03-09T11:34:38.203Z,2.40
2019-03-09T11:35:41.666Z,2.70
2019-03-09T11:36:45.122Z,3.03
2019-03-09T11:37:48.721Z,3.17
2019-03-09T11:38:52.199Z,2.40
2019-03-09T11:39:55.822Z,2.80
2019-03-09T11:41:00.875Z,2.87
2019-03-09T11:42:04.796Z,2.93
2019-03-09T11:43:08.317Z,3.27
2019-03-09T11:44:11.788Z,3.33
2019-03-09T11:45:19.208Z,2.43
2019-03-09T11:46:22.866Z,2.80
2019-03-09T11:47:26.370Z,2.60
2019-03-09T11:48:29.838Z,3.00
2019-03-09T11:49:33.306Z,2.97
2019-03-09T11:50:36.911Z,2.90
2019-03-09T11:51:40.580Z,2.40
2019-03-09T11:52:44.163Z,2.70
2019-03-09T11:53:47.643Z,2.80
2019-03-09T11:54:51.133Z,3.20
2019-03-09T11:55:54.659Z,2.90
2019-03-09T11:56:58.123Z,2.43
2019-03-09T11:58:01.565Z,2.87
2019-03-09T11:59:05.081Z,2.63
2019-03-09T12:00:15.918Z,3.10
2019-03-09T12:01:19.430Z,2.70
2019-03-09T12:02:22.973Z,2.40
2019-03-09T12:03:26.713Z,3.00
2019-03-09T12:04:30.177Z,2.50
2019-03-09T12:05:33.648Z,2.97
2019-03-09T12:06:37.092Z,2.87
2019-03-09T12:07:40.540Z,2.97
2019-03-09T12:08:44.019Z,2.70
2019-03-09T12:09:47.483Z,2.87
2019-03-09T12:10:50.951Z,2.60
2019-03-09T12:12:02.312Z,2.80
2019-03-09T12:13:05.841Z,3.17
2019-03-09T12:14:09.320Z,2.73
2019-03-09T12:15:17.306Z,2.77
2019-03-09T12:16:20.839Z,2.63
2019-03-09T12:17:24.315Z,2.67
2019-03-09T12:18:27.759Z,2.90
2019-03-09T12:19:31.320Z,2.87
2019-03-09T12:20:34.798Z,3.13
2019-03-09T12:21:38.404Z,2.40
2019-03-09T12:22:41.883Z,2.87
2019-03-09T12:23:45.335Z,2.10
2019-03-09T12:24:51.604Z,2.53
2019-03-09T12:25:55.099Z,2.80
2019-03-09T12:26:58.618Z,3.13
2019-03-09T12:28:02.096Z,3.10
2019-03-09T12:29:05.593Z,2.93
2019-03-09T12:30:12.038Z,2.70
2019-03-09T12:31:15.578Z,2.80
2019-03-09T12:32:19.038Z,2.47
2019-03-09T12:33:22.531Z,2.63
2019-03-09T12:34:26.003Z,2.50
2019-03-09T12:35:29.578Z,2.67
2019-03-09T12:36:33.055Z,2.33
2019-03-09T12:37:36.661Z,2.47
2019-03-09T12:38:40.097Z,2.73
2019-03-09T12:39:43.600Z,2.30
2019-03-09T12:40:47.057Z,2.60
2019-03-09T12:41:52.402Z,2.10
2019-03-09T12:42:55.752Z,2.50
2019-03-09T12:43:59.199Z,2.60
2019-03-09T12:45:02.740Z,2.27
2019-03-09T12:46:06.320Z,2.57
2019-03-09T12:47:09.763Z,2.30
2019-03-09T12:48:13.279Z,2.23
2019-03-09T12:49:16.717Z,2.33
2019-03-09T12:50:24.061Z,2.30
2019-03-09T12:51:27.556Z,3.10
2019-03-09T12:52:31.408Z,2.27
2019-03-09T12:53:34.872Z,2.60
2019-03-09T12:54:38.329Z,2.23
2019-03-09T12:55:41.783Z,2.27
2019-03-09T12:56:45.263Z,2.60
2019-03-09T12:57:48.729Z,2.73
2019-03-09T12:58:52.168Z,2.70
2019-03-09T12:59:55.769Z,2.73
2019-03-09T13:00:59.227Z,2.63
2019-03-09T13:02:02.711Z,3.70
2019-03-09T13:03:06.233Z,5.10
2019-03-09T13:04:11.526Z,4.57
2019-03-09T13:05:16.823Z,5.43
2019-03-09T13:06:20.356Z,5.40
2019-03-09T13:07:23.835Z,5.10
2019-03-09T13:08:27.290Z,4.77
2019-03-09T13:09:30.745Z,5.87
2019-03-09T13:10:34.293Z,4.90
2019-03-09T13:11:37.806Z,5.80
2019-03-09T13:12:41.349Z,5.37
2019-03-09T13:13:45.011Z,5.33
2019-03-09T13:14:48.555Z,5.60
2019-03-09T13:15:52.136Z,5.50
2019-03-09T13:16:56.267Z,5.37
2019-03-09T13:17:59.726Z,4.87
2019-03-09T13:19:03.186Z,5.20
2019-03-09T13:20:08.818Z,5.43
2019-03-09T13:21:12.266Z,5.07
2019-03-09T13:22:15.771Z,4.90
2019-03-09T13:23:19.439Z,5.40
2019-03-09T13:24:23.005Z,5.17
2019-03-09T13:25:26.484Z,5.20
2019-03-09T13:26:31.589Z,5.83
2019-03-09T13:27:35.048Z,5.43
2019-03-09T13:28:38.550Z,4.80
2019-03-09T13:29:42.018Z,5.53
2019-03-09T13:30:45.482Z,5.10
2019-03-09T13:31:49.198Z,5.43
2019-03-09T13:32:52.686Z,5.70
2019-03-09T13:33:56.169Z,5.20
2019-03-09T13:35:00.324Z,5.50
2019-03-09T13:36:03.752Z,5.90
2019-03-09T13:37:07.274Z,5.60
2019-03-09T13:38:10.768Z,4.97
2019-03-09T13:39:14.254Z,4.70
2019-03-09T13:40:17.849Z,4.70
2019-03-09T13:41:21.312Z,5.10
2019-03-09T13:42:24.786Z,5.37
2019-03-09T13:43:28.246Z,5.47
2019-03-09T13:44:31.724Z,4.93
2019-03-09T13:45:35.174Z,5.03
2019-03-09T13:46:38.637Z,4.67
2019-03-09T13:47:42.104Z,4.87
2019-03-09T13:48:45.551Z,5.30
2019-03-09T13:49:49.205Z,5.07
2019-03-09T13:50:52.749Z,5.00
2019-03-09T13:51:56.203Z,4.47
2019-03-09T13:52:59.744Z,4.80
2019-03-09T13:54:03.190Z,5.03
2019-03-09T13:55:08.523Z,4.33
2019-03-09T13:56:11.975Z,4.60
2019-03-09T13:57:15.436Z,5.10
2019-03-09T13:58:18.955Z,4.60
2019-03-09T13:59:22.410Z,4.90
2019-03-09T14:00:25.931Z,5.33
2019-03-09T14:01:29.450Z,4.20
2019-03-09T14:02:32.906Z,4.20
2019-03-09T14:03:37.242Z,4.23
2019-03-09T14:04:40.846Z,4.30
2019-03-09T14:05:44.408Z,3.83
2019-03-09T14:06:47.870Z,4.90
2019-03-09T14:07:51.382Z,4.57
2019-03-09T14:08:54.999Z,3.57
2019-03-09T14:09:58.459Z,3.87
2019-03-09T14:11:01.930Z,4.23
2019-03-09T14:12:05.418Z,3.33